METAR / TAF
Helsinki-Vantaa
HELSINKI/VANTAA
Metar
EFHK 161220Z 17010KT 140V200 9999 FEW030 BKN200 21/12 Q1018 NOSIG

12:20 UTC

Wind: 170° 10kt

Visibility: 9999 m

Sky: FEW 3000 ft

Temp: 21 deg C / 69.8 deg F

Dewpoint: 12 deg C / 53.6 deg F

Pressure: 1018 hPa

TAF
TAF EFHK 161136Z 1612/1712 18012KT 9999 FEW035 SCT250 PROB30 1612/1613 FEW035TCU BECMG 1617/1619 16002KT BECMG 1706/1708 18012KT
Helsinki, Malmi
HELSINKI/MALMI
Turku
TURKU/ABO
Metar
EFTU 161220Z AUTO 23011KT 170V260 9999 SCT035/// BKN054/// 21/12 Q1017

12:20 UTC

Wind: 230° 11kt

Visibility: 9999 m

Sky: SCT 3500 ft

Temp: 21 deg C / 69.8 deg F

Dewpoint: 12 deg C / 53.6 deg F

Pressure: 1017 hPa

TAF
TAF EFTU 161136Z 1612/1712 20009KT 9999 SCT040 PROB30 1612/1615 FEW030TCU SCT250
Tampere, Pirkkala
TAMPERE/PIRKKALA
Metar
EFTP 161220Z 19006KT 150V220 CAVOK 21/09 Q1017

12:20 UTC

Wind: 190° 6kt

Visibility:

Sky:

Temp: 21 deg C / 69.8 deg F

Dewpoint: 9 deg C / 48.2 deg F

Pressure: 1017 hPa

TAF
TAF EFTP 161123Z 1612/1712 20008KT 9999 FEW045 SCT200 PROB30 TEMPO 1703/1708 BKN009
Maarianhamina
MARIEHAMN/ALAND
Metar
EFMA 161220Z 17015KT 9999 BKN009 20/17 Q1016

12:20 UTC

Wind: 170° 15kt

Visibility: 9999 m

Sky: BKN 900 ft

Temp: 20 deg C / 68 deg F

Dewpoint: 17 deg C / 62.6 deg F

Pressure: 1016 hPa

TAF
TAF AMD EFMA 161224Z 1612/1621 18014KT 9999 BKN009 BECMG 1612/1614 SCT012 PROB30 TEMPO 1612/1616 18015G25KT
Pori
PORI (MIL/CIV)
Metar
EFPO 161220Z AUTO 20011KT 170V230 9999 SCT041/// BKN056/// 22/11 Q1016

12:20 UTC

Wind: 200° 11kt

Visibility: 9999 m

Sky: SCT 4100 ft

Temp: 22 deg C / 71.6 deg F

Dewpoint: 11 deg C / 51.8 deg F

Pressure: 1016 hPa

TAF
TAF EFPO 161123Z 1612/1614 22010KT 9999 SCT040
Vaasa
VAASA
Metar
EFVA 161220Z AUTO 20015KT 9999 FEW040/// 21/12 Q1014

12:20 UTC

Wind: 200° 15kt

Visibility: 9999 m

Sky: FEW 4000 ft

Temp: 21 deg C / 69.8 deg F

Dewpoint: 12 deg C / 53.6 deg F

Pressure: 1014 hPa

TAF
TAF EFVA 161123Z 1612/1712 20013KT 9999 SCT040 PROB30 TEMPO 1703/1708 BKN012
Kruunupyy
KRUUNUPYY
Metar
EFKK 161220Z AUTO 19010KT 140V240 CAVOK 22/07 Q1014

12:20 UTC

Wind: 190° 10kt

Visibility:

Sky:

Temp: 22 deg C / 71.6 deg F

Dewpoint: 7 deg C / 44.6 deg F

Pressure: 1014 hPa

TAF
TAF EFKK 161123Z 1612/1621 19010KT CAVOK
Jyväskylä, Tikkakoski
JYVASKYLA (MIL/C
Metar
EFJY 161220Z AUTO 22007KT 180V250 CAVOK 22/09 Q1016

12:20 UTC

Wind: 220° 7kt

Visibility:

Sky:

Temp: 22 deg C / 71.6 deg F

Dewpoint: 9 deg C / 48.2 deg F

Pressure: 1016 hPa

TAF
TAF EFJY 161123Z 1612/1712 19012KT CAVOK
Kuopio
KUOPIO (MIL/CIV)
Metar
EFKU 161220Z 18008KT CAVOK 22/10 Q1017

12:20 UTC

Wind: 180° 8kt

Visibility:

Sky:

Temp: 22 deg C / 71.6 deg F

Dewpoint: 10 deg C / 50 deg F

Pressure: 1017 hPa

TAF
TAF EFKU 161126Z 1612/1712 22006KT 9999 SCT045 TEMPO 1612/1616 FEW050TCU
Joensuu
JOENSUU
Metar
EFJO 161220Z AUTO 15005KT 110V190 CAVOK 20/13 Q1018

12:20 UTC

Wind: 150° 5kt

Visibility:

Sky:

Temp: 20 deg C / 68 deg F

Dewpoint: 13 deg C / 55.4 deg F

Pressure: 1018 hPa

TAF
TAF EFJO 161126Z 1612/1621 15006KT CAVOK TEMPO 1612/1615 FEW050TCU
Halli
HALLI (FIN-AFB)
Metar
EFHA 161220Z AUTO 19009KT 160V230 CAVOK 22/10 Q1017

12:20 UTC

Wind: 190° 9kt

Visibility:

Sky:

Temp: 22 deg C / 71.6 deg F

Dewpoint: 10 deg C / 50 deg F

Pressure: 1017 hPa

TAF
TAF EFHA 161123Z 1612/1614 19010KT 9999 FEW040
Utti
UTTI (FIN-AFB)
Metar
EFUT 161220Z 18007KT 110V230 CAVOK 23/11 Q1018

12:20 UTC

Wind: 180° 7kt

Visibility:

Sky:

Temp: 23 deg C / 73.4 deg F

Dewpoint: 11 deg C / 51.8 deg F

Pressure: 1018 hPa

TAF
TAF EFUT 161126Z 1612/1619 20006KT 9999 SCT040 TEMPO 1612/1615 SCT040TCU
Mikkeli
MIKKELI
Metar
EFMI 161220Z AUTO 24006KT 170V300 CAVOK 22/11 Q1018

12:20 UTC

Wind: 240° 6kt

Visibility:

Sky:

Temp: 22 deg C / 71.6 deg F

Dewpoint: 11 deg C / 51.8 deg F

Pressure: 1018 hPa

Savonlinna
SAVONLINNA (AUT)
Metar
EFSA 161220Z AUTO 16003KT CAVOK 22/10 Q1018

12:20 UTC

Wind: 160° 3kt

Visibility:

Sky:

Temp: 22 deg C / 71.6 deg F

Dewpoint: 10 deg C / 50 deg F

Pressure: 1018 hPa

Lappeenranta
LAPPEENRANTA
Metar
EFLP 161220Z AUTO 20007KT 170V240 CAVOK 21/12 Q1018

12:20 UTC

Wind: 200° 7kt

Visibility:

Sky:

Temp: 21 deg C / 69.8 deg F

Dewpoint: 12 deg C / 53.6 deg F

Pressure: 1018 hPa

Oulu
OULU/ULEABORG
Metar
EFOU 161220Z AUTO 28005KT 240V310 CAVOK 20/11 Q1014

12:20 UTC

Wind: 280° 5kt

Visibility:

Sky:

Temp: 20 deg C / 68 deg F

Dewpoint: 11 deg C / 51.8 deg F

Pressure: 1014 hPa

TAF
TAF EFOU 161120Z 1612/1712 18007KT CAVOK
Kemi
KEMI
Metar
EFKE 161220Z 17011KT CAVOK 17/11 Q1014

12:20 UTC

Wind: 170° 11kt

Visibility:

Sky:

Temp: 17 deg C / 62.6 deg F

Dewpoint: 11 deg C / 51.8 deg F

Pressure: 1014 hPa

TAF
TAF EFKE 161120Z 1612/1621 17010KT 9999 FEW020
Rovaniemi
ROVANIEMI (CIV/M
Metar
EFRO 161220Z AUTO 19013KT CAVOK 17/09 Q1013

12:20 UTC

Wind: 190° 13kt

Visibility:

Sky:

Temp: 17 deg C / 62.6 deg F

Dewpoint: 9 deg C / 48.2 deg F

Pressure: 1013 hPa

TAF
TAF EFRO 161120Z 1612/1712 20013KT CAVOK TEMPO 1622/1701 7000 -SHRA BKN012 BECMG 1701/1703 BKN005 TEMPO 1702/1706 BKN010 BECMG 1706/1709 BKN015
Enontekiö
ENONTEKIO
Metar
EFET 161220Z AUTO 16007KT 120V210 9999 OVC011 12/10 Q1010

12:20 UTC

Wind: 160° 7kt

Visibility: 9999 m

Sky: OVC 1100 ft

Temp: 12 deg C / 53.6 deg F

Dewpoint: 10 deg C / 50 deg F

Pressure: 1010 hPa

Ivalo
IVALO
Metar
EFIV 161220Z AUTO 16005KT 120V190 9999 -SHRA OVC055 //////CB 10/09 Q1014

12:20 UTC

Wind: 160° 5kt

Visibility: 9999 m

Sky: OVC 5500 ft

Temp: 10 deg C / 50 deg F

Dewpoint: 9 deg C / 48.2 deg F

Pressure: 1014 hPa

TAF
TAF EFIV 160521Z 1606/1610 18005KT CAVOK
Kittilä
KITTILA
Metar
EFKT 161220Z AUTO 15009KT CAVOK 13/11 Q1012

12:20 UTC

Wind: 150° 9kt

Visibility:

Sky:

Temp: 13 deg C / 55.4 deg F

Dewpoint: 11 deg C / 51.8 deg F

Pressure: 1012 hPa

TAF
TAF EFKT 160822Z 1609/1612 17006KT 9999 -SHRA OVC050 TEMPO 1609/1612 7000 -SHRA PROB40 1609/1612 FEW050CB
Kuusamo
KUUSAMO
Metar
EFKS 161220Z AUTO 16008KT 9999 BKN041 16/09 Q1016

12:20 UTC

Wind: 160° 8kt

Visibility: 9999 m

Sky: BKN 4100 ft

Temp: 16 deg C / 60.8 deg F

Dewpoint: 9 deg C / 48.2 deg F

Pressure: 1016 hPa

TAF
TAF EFKS 160822Z 1609/1613 18008KT CAVOK
Kajaani
KAJAANI
Metar
EFKI 161220Z AUTO 21004KT 150V290 CAVOK 21/09 Q1016

12:20 UTC

Wind: 210° 4kt

Visibility:

Sky:

Temp: 21 deg C / 69.8 deg F

Dewpoint: 9 deg C / 48.2 deg F

Pressure: 1016 hPa

TAF
TAF EFKI 161126Z 1612/1621 20006KT 9999 SCT045
Varkaus
VARKAUS
Seinäjoki
SEINAJOKI-ILMAJO
Metar
EFSI 161220Z AUTO 20008KT 150V280 CAVOK 22/09 Q1015

12:20 UTC

Wind: 200° 8kt

Visibility:

Sky:

Temp: 22 deg C / 71.6 deg F

Dewpoint: 9 deg C / 48.2 deg F

Pressure: 1015 hPa

Print Friendly, PDF & Email